createdAt,value
2023-03-05T00:01:33.540Z,18.13
2023-03-05T00:04:37.075Z,17.33
2023-03-05T00:07:39.695Z,19.02
2023-03-05T00:10:43.061Z,18.17
2023-03-05T00:13:47.006Z,17.23
2023-03-05T00:16:50.007Z,15.82
2023-03-05T00:19:53.253Z,18.92
2023-03-05T00:22:56.616Z,14.75
2023-03-05T00:26:05.232Z,17.53
2023-03-05T00:29:09.351Z,17.88
2023-03-05T00:32:13.676Z,15.73
2023-03-05T00:35:17.155Z,17.60
2023-03-05T00:38:20.191Z,17.30
2023-03-05T00:41:23.590Z,16.40
2023-03-05T00:44:27.164Z,17.38
2023-03-05T00:47:29.742Z,16.05
2023-03-05T00:50:33.108Z,17.08
2023-03-05T00:53:36.513Z,19.40
2023-03-05T00:56:40.207Z,16.80
2023-03-05T00:59:43.248Z,17.63
2023-03-05T01:02:47.151Z,18.35
2023-03-05T01:05:50.607Z,17.80
2023-03-05T01:08:53.269Z,18.98
2023-03-05T01:11:56.719Z,21.73
2023-03-05T01:14:59.264Z,17.70
2023-03-05T01:18:02.656Z,18.35
2023-03-05T01:21:06.742Z,20.10
2023-03-05T01:24:09.711Z,17.17
2023-03-05T01:27:13.124Z,14.93
2023-03-05T01:30:17.204Z,20.90
2023-03-05T01:33:20.129Z,15.77
2023-03-05T01:36:25.217Z,16.60
2023-03-05T01:39:30.160Z,16.42
2023-03-05T01:42:34.128Z,15.43
2023-03-05T01:45:36.984Z,16.08
2023-03-05T01:48:44.500Z,16.48
2023-03-05T01:51:50.137Z,15.63
2023-03-05T01:54:59.050Z,17.67
2023-03-05T01:58:10.165Z,18.00
2023-03-05T02:01:14.224Z,17.98
2023-03-05T02:04:20.110Z,17.65
2023-03-05T02:07:24.346Z,16.80
2023-03-05T02:10:30.923Z,16.92
2023-03-05T02:13:38.705Z,18.90
2023-03-05T02:16:43.017Z,14.07
2023-03-05T02:20:03.051Z,17.58
2023-03-05T02:23:05.632Z,16.80
2023-03-05T02:26:10.858Z,16.15
2023-03-05T02:29:18.797Z,17.00
2023-03-05T02:32:22.220Z,16.13
2023-03-05T02:35:25.370Z,16.75
2023-03-05T02:38:28.016Z,15.65
2023-03-05T02:41:31.267Z,16.00
2023-03-05T02:44:34.526Z,18.10
2023-03-05T02:47:38.024Z,16.55
2023-03-05T02:50:41.964Z,18.17
2023-03-05T02:53:45.014Z,15.50
2023-03-05T02:56:48.941Z,19.00
2023-03-05T02:59:52.384Z,16.70
2023-03-05T03:02:55.269Z,16.60
2023-03-05T03:05:57.873Z,14.88
2023-03-05T03:09:00.470Z,18.23
2023-03-05T03:12:04.920Z,14.73
2023-03-05T03:15:10.041Z,16.90
2023-03-05T03:18:12.616Z,15.35
2023-03-05T03:21:24.481Z,15.27
2023-03-05T03:24:30.284Z,16.67
2023-03-05T03:27:32.957Z,14.65
2023-03-05T03:30:36.365Z,16.10
2023-03-05T03:33:38.998Z,15.48
2023-03-05T03:36:43.769Z,15.48
2023-03-05T03:39:46.337Z,16.73
2023-03-05T03:42:52.239Z,12.55
2023-03-05T03:45:55.818Z,14.47
2023-03-05T03:48:58.575Z,15.85
2023-03-05T03:52:01.143Z,18.15
2023-03-05T03:55:03.837Z,17.17
2023-03-05T03:58:07.304Z,15.00
2023-03-05T04:01:10.885Z,16.87
2023-03-05T04:04:14.588Z,14.38
2023-03-05T04:07:17.527Z,14.68
2023-03-05T04:10:21.809Z,15.15
2023-03-05T04:13:24.503Z,14.68
2023-03-05T04:16:27.950Z,14.30
2023-03-05T04:19:30.800Z,14.50
2023-03-05T04:22:33.860Z,15.85
2023-03-05T04:25:37.346Z,15.10
2023-03-05T04:28:41.917Z,16.17
2023-03-05T04:31:45.464Z,17.80
2023-03-05T04:34:48.120Z,15.20
2023-03-05T04:37:50.686Z,16.88
2023-03-05T04:40:53.290Z,15.10
2023-03-05T04:43:56.902Z,15.23
2023-03-05T04:46:59.427Z,15.87
2023-03-05T04:50:05.044Z,19.45
2023-03-05T04:53:07.683Z,15.68
2023-03-05T04:56:10.869Z,13.30
2023-03-05T04:59:13.675Z,15.02
2023-03-05T05:02:16.851Z,16.50
2023-03-05T05:05:25.793Z,14.70
2023-03-05T05:08:29.268Z,15.20
2023-03-05T05:11:32.507Z,16.38
2023-03-05T05:14:35.054Z,15.45
2023-03-05T05:17:38.629Z,15.93
2023-03-05T05:20:41.184Z,15.55
2023-03-05T05:23:43.826Z,15.88
2023-03-05T05:26:46.914Z,15.85
2023-03-05T05:29:53.043Z,17.08
2023-03-05T05:32:55.764Z,14.43
2023-03-05T05:35:58.923Z,16.50
2023-03-05T05:39:01.500Z,15.55
2023-03-05T05:42:05.146Z,17.17
2023-03-05T05:45:09.477Z,17.88
2023-03-05T05:48:12.155Z,16.17
2023-03-05T05:51:18.504Z,16.85
2023-03-05T05:54:22.960Z,16.67
2023-03-05T05:57:25.698Z,15.02
2023-03-05T06:00:28.433Z,19.00
2023-03-05T06:03:31.999Z,18.23
2023-03-05T06:06:35.198Z,17.13
2023-03-05T06:09:37.990Z,17.08
2023-03-05T06:12:40.856Z,16.20
2023-03-05T06:15:43.406Z,18.02
2023-03-05T06:18:47.497Z,19.30
2023-03-05T06:21:51.047Z,19.90
2023-03-05T06:24:54.515Z,15.63
2023-03-05T06:27:57.970Z,17.38
2023-03-05T06:31:06.325Z,18.20
2023-03-05T06:34:10.452Z,17.93
2023-03-05T06:37:14.104Z,20.40
2023-03-05T06:40:16.810Z,17.73
2023-03-05T06:43:19.581Z,19.33
2023-03-05T06:46:28.385Z,20.55
2023-03-05T06:49:31.022Z,19.33
2023-03-05T06:52:34.485Z,20.17
2023-03-05T06:55:39.854Z,20.85
2023-03-05T06:58:46.004Z,16.95
2023-03-05T07:01:49.763Z,19.25
2023-03-05T07:04:53.084Z,22.40
2023-03-05T07:07:56.856Z,20.38
2023-03-05T07:11:00.240Z,18.67
2023-03-05T07:14:04.230Z,22.20
2023-03-05T07:17:07.621Z,20.67
2023-03-05T07:20:10.789Z,20.27
2023-03-05T07:23:13.396Z,18.38
2023-03-05T07:26:17.300Z,21.23
2023-03-05T07:29:20.612Z,20.33
2023-03-05T07:32:24.121Z,19.00
2023-03-05T07:35:28.184Z,20.50
2023-03-05T07:38:32.176Z,21.13
2023-03-05T07:41:35.626Z,20.80
2023-03-05T07:44:39.103Z,20.08
2023-03-05T07:47:41.628Z,18.23
2023-03-05T07:50:45.399Z,20.93
2023-03-05T07:53:50.463Z,19.35
2023-03-05T07:56:54.663Z,19.42
2023-03-05T07:59:58.221Z,19.85
2023-03-05T08:03:01.986Z,19.70
2023-03-05T08:06:07.193Z,18.70
2023-03-05T08:09:11.924Z,18.35
2023-03-05T08:12:14.964Z,18.48
2023-03-05T08:15:19.074Z,19.35
2023-03-05T08:18:22.065Z,18.10
2023-03-05T08:21:29.480Z,18.00
2023-03-05T08:24:32.074Z,18.30
2023-03-05T08:27:42.313Z,17.95
2023-03-05T08:30:53.892Z,17.83
2023-03-05T08:33:59.740Z,19.77
2023-03-05T08:37:02.308Z,16.67
2023-03-05T08:40:06.463Z,18.30
2023-03-05T08:43:09.008Z,17.13
2023-03-05T08:46:15.913Z,18.85
2023-03-05T08:49:19.671Z,19.40
2023-03-05T08:52:23.303Z,18.33
2023-03-05T08:55:26.634Z,18.73
2023-03-05T08:58:29.276Z,18.42
2023-03-05T09:01:32.966Z,20.75
2023-03-05T09:04:37.883Z,18.52
2023-03-05T09:07:40.597Z,18.70
2023-03-05T09:10:45.120Z,18.55
2023-03-05T09:13:47.646Z,19.80
2023-03-05T09:16:51.182Z,15.90
2023-03-05T09:19:54.741Z,19.33
2023-03-05T09:22:57.413Z,18.70
2023-03-05T09:26:00.313Z,19.42
2023-03-05T09:29:03.793Z,18.55
2023-03-05T09:32:07.722Z,19.90
2023-03-05T09:35:10.728Z,17.73
2023-03-05T09:38:13.225Z,16.93
2023-03-05T09:41:30.787Z,18.00
2023-03-05T09:44:59.011Z,20.77
2023-03-05T09:48:20.889Z,19.60
2023-03-05T09:51:28.653Z,21.02
2023-03-05T09:54:44.694Z,20.33
2023-03-05T09:57:52.087Z,15.77
2023-03-05T10:01:04.393Z,17.63
2023-03-05T10:04:21.152Z,20.27
2023-03-05T10:07:31.551Z,18.63
2023-03-05T10:10:44.424Z,17.33
2023-03-05T10:13:48.896Z,14.45
2023-03-05T10:17:12.520Z,17.95
2023-03-05T10:20:34.355Z,16.42
2023-03-05T10:23:39.484Z,14.10
2023-03-05T10:26:57.659Z,15.80
2023-03-05T10:30:13.521Z,18.05
2023-03-05T10:33:28.630Z,17.25
2023-03-05T10:37:08.062Z,14.73
2023-03-05T10:40:34.209Z,13.93
2023-03-05T10:43:49.226Z,11.53
2023-03-05T10:46:52.584Z,14.15
2023-03-05T10:49:58.136Z,13.40
2023-03-05T10:53:15.381Z,13.93
2023-03-05T10:56:21.282Z,12.88
2023-03-05T10:59:23.968Z,13.37
2023-03-05T11:02:27.856Z,13.43
2023-03-05T11:05:36.271Z,14.07
2023-03-05T11:08:39.428Z,11.80
2023-03-05T11:11:42.206Z,13.82
2023-03-05T11:15:05.853Z,15.67
2023-03-05T11:18:21.366Z,13.73
2023-03-05T11:21:27.948Z,15.35
2023-03-05T11:24:30.575Z,15.38
2023-03-05T11:27:39.462Z,20.98
2023-03-05T11:30:42.899Z,15.10
2023-03-05T11:34:00.517Z,15.35
2023-03-05T11:37:06.688Z,15.80
2023-03-05T11:40:25.383Z,17.00
2023-03-05T11:43:33.037Z,15.85
2023-03-05T11:46:48.743Z,17.47
2023-03-05T11:49:59.201Z,16.75
2023-03-05T11:53:13.089Z,17.17
2023-03-05T11:56:34.198Z,20.13
2023-03-05T11:59:40.483Z,15.25
2023-03-05T12:02:44.561Z,15.90
2023-03-05T12:05:52.360Z,16.55
2023-03-05T12:08:58.307Z,17.60
2023-03-05T12:12:18.496Z,15.23
2023-03-05T12:15:25.052Z,14.43
2023-03-05T12:18:57.702Z,17.53
2023-03-05T12:22:00.836Z,14.52
2023-03-05T12:25:27.830Z,15.63
2023-03-05T12:28:36.709Z,15.18
2023-03-05T12:31:44.399Z,12.40
2023-03-05T12:34:50.076Z,14.83
2023-03-05T12:37:59.420Z,9.82
2023-03-05T12:41:24.932Z,11.75
2023-03-05T12:44:29.656Z,12.05
2023-03-05T12:47:32.244Z,13.75
2023-03-05T12:50:38.196Z,9.57
2023-03-05T12:53:41.666Z,10.00
2023-03-05T12:56:47.205Z,10.30
2023-03-05T12:59:58.636Z,9.57
2023-03-05T13:03:08.407Z,9.48
2023-03-05T13:06:30.163Z,10.53
2023-03-05T13:09:36.284Z,8.82
2023-03-05T13:12:40.154Z,9.75
2023-03-05T13:15:50.501Z,10.32
2023-03-05T13:18:54.261Z,11.10
2023-03-05T13:21:59.378Z,7.83
2023-03-05T13:25:20.519Z,9.93
2023-03-05T13:28:24.134Z,11.50
2023-03-05T13:31:26.821Z,11.43
2023-03-05T13:34:46.234Z,10.75
2023-03-05T13:37:51.352Z,12.20
2023-03-05T13:41:16.217Z,10.95
2023-03-05T13:44:22.013Z,11.55
2023-03-05T13:47:28.586Z,9.98
2023-03-05T13:50:38.872Z,10.00
2023-03-05T13:53:41.800Z,9.90
2023-03-05T13:56:53.210Z,9.07
2023-03-05T13:59:55.796Z,10.13
2023-03-05T14:03:11.884Z,8.45
2023-03-05T14:06:19.897Z,9.25
2023-03-05T14:09:27.245Z,7.23
2023-03-05T14:12:41.082Z,9.10
2023-03-05T14:16:22.763Z,9.02
2023-03-05T14:19:38.926Z,9.15
2023-03-05T14:22:45.354Z,9.32
2023-03-05T14:25:49.073Z,9.03
2023-03-05T14:28:54.446Z,9.32
2023-03-05T14:31:59.365Z,9.85
2023-03-05T14:35:05.253Z,12.88
2023-03-05T14:38:28.037Z,9.80
2023-03-05T14:41:42.137Z,10.07
2023-03-05T14:44:46.855Z,10.68
2023-03-05T14:47:54.914Z,13.50
2023-03-05T14:50:58.302Z,9.63
2023-03-05T14:54:01.100Z,11.82
2023-03-05T14:57:05.594Z,11.27
2023-03-05T15:00:23.716Z,11.55
2023-03-05T15:03:28.051Z,12.25
2023-03-05T15:06:36.661Z,13.10
2023-03-05T15:09:40.137Z,13.00
2023-03-05T15:12:42.853Z,15.60
2023-03-05T15:15:47.079Z,11.52
2023-03-05T15:18:50.915Z,10.25
2023-03-05T15:21:54.260Z,8.60
2023-03-05T15:24:56.833Z,9.93
2023-03-05T15:27:59.481Z,7.93
2023-03-05T15:31:03.354Z,8.23
2023-03-05T15:34:07.083Z,10.73
2023-03-05T15:37:09.703Z,9.40
2023-03-05T15:40:13.623Z,8.63
2023-03-05T15:43:17.792Z,8.60
2023-03-05T15:46:20.381Z,8.00
2023-03-05T15:49:24.418Z,8.65
2023-03-05T15:52:27.108Z,8.70
2023-03-05T15:55:31.670Z,9.77
2023-03-05T15:58:35.270Z,8.23
2023-03-05T16:01:38.069Z,9.70
2023-03-05T16:04:41.198Z,9.23
2023-03-05T16:07:46.145Z,7.95
2023-03-05T16:10:48.860Z,9.68
2023-03-05T16:13:51.572Z,9.17
2023-03-05T16:16:55.985Z,7.47
2023-03-05T16:19:58.604Z,6.80
2023-03-05T16:23:03.099Z,7.38
2023-03-05T16:26:05.720Z,7.32
2023-03-05T16:29:08.898Z,9.53
2023-03-05T16:32:12.266Z,6.75
2023-03-05T16:35:15.082Z,6.90
2023-03-05T16:38:19.232Z,6.53
2023-03-05T16:41:24.346Z,7.88
2023-03-05T16:44:27.704Z,6.70
2023-03-05T16:47:30.277Z,6.85
2023-03-05T16:50:33.716Z,7.55
2023-03-05T16:53:36.596Z,5.28
2023-03-05T16:56:39.875Z,5.47
2023-03-05T16:59:43.807Z,7.27
2023-03-05T17:02:47.763Z,5.72
2023-03-05T17:05:50.354Z,3.65
2023-03-05T17:08:54.628Z,5.65
2023-03-05T17:11:57.323Z,5.63
2023-03-05T17:14:59.966Z,5.97
2023-03-05T17:18:03.542Z,4.93
2023-03-05T17:21:11.235Z,4.45
2023-03-05T17:24:14.294Z,4.57
2023-03-05T17:27:22.680Z,6.97
2023-03-05T17:30:25.686Z,5.10
2023-03-05T17:33:29.048Z,6.22
2023-03-05T17:36:32.250Z,4.57
2023-03-05T17:39:35.796Z,5.55
2023-03-05T17:42:39.677Z,5.78
2023-03-05T17:45:42.957Z,6.10
2023-03-05T17:48:45.625Z,6.32
2023-03-05T17:51:49.354Z,5.10
2023-03-05T17:54:53.268Z,7.70
2023-03-05T17:57:55.935Z,6.57
2023-03-05T18:01:00.463Z,5.90
2023-03-05T18:04:03.874Z,6.40
2023-03-05T18:07:07.765Z,6.32
2023-03-05T18:10:11.893Z,6.10
2023-03-05T18:13:15.361Z,10.68
2023-03-05T18:16:18.324Z,6.37
2023-03-05T18:19:21.052Z,5.90
2023-03-05T18:22:24.303Z,5.80
2023-03-05T18:25:31.133Z,7.93
2023-03-05T18:28:34.876Z,5.47
2023-03-05T18:31:37.733Z,5.60
2023-03-05T18:34:40.887Z,6.10
2023-03-05T18:37:44.420Z,5.70
2023-03-05T18:40:51.252Z,6.13
2023-03-05T18:43:54.669Z,6.70
2023-03-05T18:46:58.079Z,7.73
2023-03-05T18:50:00.630Z,5.15
2023-03-05T18:53:03.301Z,5.35
2023-03-05T18:56:06.340Z,5.63
2023-03-05T18:59:09.872Z,7.07
2023-03-05T19:02:14.649Z,7.23
2023-03-05T19:05:17.797Z,5.43
2023-03-05T19:08:21.596Z,5.80
2023-03-05T19:11:25.408Z,5.95
2023-03-05T19:14:28.850Z,5.47
2023-03-05T19:17:32.770Z,6.00
2023-03-05T19:20:35.379Z,10.90
2023-03-05T19:23:38.100Z,8.55
2023-03-05T19:26:41.078Z,7.93
2023-03-05T19:29:44.160Z,5.93
2023-03-05T19:32:47.466Z,6.40
2023-03-05T19:35:51.047Z,6.50
2023-03-05T19:38:54.468Z,4.97
2023-03-05T19:41:58.902Z,6.15
2023-03-05T19:45:01.775Z,6.35
2023-03-05T19:48:05.220Z,5.47
2023-03-05T19:51:12.421Z,6.13
2023-03-05T19:54:16.827Z,6.30
2023-03-05T19:57:19.421Z,6.13
2023-03-05T20:00:22.428Z,4.10
2023-03-05T20:03:25.135Z,6.20
2023-03-05T20:06:30.879Z,5.80
2023-03-05T20:09:34.001Z,5.35
2023-03-05T20:12:36.721Z,6.80
2023-03-05T20:15:39.253Z,5.65
2023-03-05T20:18:43.414Z,5.93
2023-03-05T20:21:47.089Z,6.00
2023-03-05T20:24:49.673Z,5.80
2023-03-05T20:27:53.095Z,5.35
2023-03-05T20:30:57.568Z,5.50
2023-03-05T20:34:01.003Z,5.40
2023-03-05T20:37:05.036Z,7.50
2023-03-05T20:40:08.597Z,6.35
2023-03-05T20:43:11.999Z,6.47
2023-03-05T20:46:27.086Z,5.40
2023-03-05T20:49:29.696Z,7.23
2023-03-05T20:52:32.525Z,6.18
2023-03-05T20:55:36.323Z,5.15
2023-03-05T20:58:39.115Z,5.40
2023-03-05T21:01:42.561Z,7.72
2023-03-05T21:04:45.988Z,10.63
2023-03-05T21:07:50.200Z,10.18
2023-03-05T21:10:52.976Z,9.98
2023-03-05T21:13:55.624Z,9.30
2023-03-05T21:16:59.016Z,9.43
2023-03-05T21:20:01.820Z,11.47
2023-03-05T21:23:05.156Z,10.30
2023-03-05T21:26:08.869Z,10.00
2023-03-05T21:29:11.537Z,10.35
2023-03-05T21:32:16.065Z,11.82
2023-03-05T21:35:21.829Z,9.87
2023-03-05T21:38:29.932Z,12.05
2023-03-05T21:41:32.568Z,9.48
2023-03-05T21:44:39.145Z,11.73
2023-03-05T21:47:42.135Z,10.77
2023-03-05T21:50:46.620Z,10.60
2023-03-05T21:53:49.685Z,12.55
2023-03-05T21:56:52.258Z,9.20
2023-03-05T21:59:55.677Z,8.13
2023-03-05T22:02:59.231Z,6.72
2023-03-05T22:06:01.771Z,7.63
2023-03-05T22:09:05.074Z,7.55
2023-03-05T22:13:05.399Z,8.77
2023-03-05T22:16:09.306Z,7.47
2023-03-05T22:19:12.485Z,7.45
2023-03-05T22:22:16.109Z,8.23
2023-03-05T22:25:18.731Z,8.15
2023-03-05T22:28:22.113Z,8.80
2023-03-05T22:31:26.743Z,10.90
2023-03-05T22:34:29.208Z,9.40
2023-03-05T22:37:33.155Z,9.13
2023-03-05T22:40:41.798Z,10.43
2023-03-05T22:43:44.329Z,10.60
2023-03-05T22:46:47.649Z,8.43
2023-03-05T22:49:50.340Z,8.88
2023-03-05T22:52:56.708Z,10.40
2023-03-05T22:55:59.709Z,11.07
2023-03-05T22:59:03.184Z,9.10
2023-03-05T23:02:06.785Z,10.23
2023-03-05T23:05:11.133Z,12.77
2023-03-05T23:08:13.714Z,9.27
2023-03-05T23:11:17.160Z,10.68
2023-03-05T23:14:19.816Z,10.27
2023-03-05T23:17:22.677Z,10.23
2023-03-05T23:20:30.844Z,9.35
2023-03-05T23:23:34.224Z,11.70
2023-03-05T23:26:36.768Z,9.68
2023-03-05T23:30:21.974Z,10.57
2023-03-05T23:33:24.947Z,9.55
2023-03-05T23:36:27.502Z,9.57
2023-03-05T23:39:30.128Z,8.63
2023-03-05T23:42:34.027Z,8.70
2023-03-05T23:45:37.255Z,9.57
2023-03-05T23:48:41.915Z,8.40
2023-03-05T23:51:44.437Z,10.73
2023-03-05T23:54:47.184Z,8.73
2023-03-05T23:57:50.005Z,8.13
